sensor_id;sensor_type;location;lat;lon;timestamp;P1;durP1;ratioP1;P2;durP2;ratioP2
6386;SDS011;3226;42.162;24.756;2022-12-11T00:00:54;5.63;;;5.43;;
6386;SDS011;3226;42.162;24.756;2022-12-11T00:03:22;6.27;;;6.00;;
6386;SDS011;3226;42.162;24.756;2022-12-11T00:05:51;6.20;;;6.00;;
6386;SDS011;3226;42.162;24.756;2022-12-11T00:08:18;6.00;;;5.80;;
6386;SDS011;3226;42.162;24.756;2022-12-11T00:10:47;6.17;;;5.97;;
6386;SDS011;3226;42.162;24.756;2022-12-11T00:13:17;5.23;;;5.03;;
6386;SDS011;3226;42.162;24.756;2022-12-11T00:15:45;5.27;;;5.07;;
6386;SDS011;3226;42.162;24.756;2022-12-11T00:18:13;5.73;;;5.53;;
6386;SDS011;3226;42.162;24.756;2022-12-11T00:20:41;6.07;;;5.87;;
6386;SDS011;3226;42.162;24.756;2022-12-11T00:23:09;6.00;;;5.80;;
6386;SDS011;3226;42.162;24.756;2022-12-11T00:25:39;5.13;;;4.93;;
6386;SDS011;3226;42.162;24.756;2022-12-11T00:28:09;6.03;;;5.83;;
6386;SDS011;3226;42.162;24.756;2022-12-11T00:30:39;5.87;;;5.67;;
6386;SDS011;3226;42.162;24.756;2022-12-11T00:33:08;5.43;;;5.23;;
6386;SDS011;3226;42.162;24.756;2022-12-11T00:35:37;5.57;;;5.37;;
6386;SDS011;3226;42.162;24.756;2022-12-11T00:38:05;6.27;;;5.87;;
6386;SDS011;3226;42.162;24.756;2022-12-11T00:40:33;5.30;;;5.10;;
6386;SDS011;3226;42.162;24.756;2022-12-11T00:43:02;5.60;;;5.40;;
6386;SDS011;3226;42.162;24.756;2022-12-11T00:45:30;5.90;;;5.70;;
6386;SDS011;3226;42.162;24.756;2022-12-11T00:48:03;5.27;;;5.07;;
6386;SDS011;3226;42.162;24.756;2022-12-11T00:50:32;6.30;;;6.10;;
6386;SDS011;3226;42.162;24.756;2022-12-11T00:53:01;6.73;;;6.43;;
6386;SDS011;3226;42.162;24.756;2022-12-11T00:55:29;5.80;;;5.60;;
6386;SDS011;3226;42.162;24.756;2022-12-11T00:57:57;5.70;;;5.50;;
6386;SDS011;3226;42.162;24.756;2022-12-11T01:00:26;5.93;;;5.73;;
6386;SDS011;3226;42.162;24.756;2022-12-11T01:02:54;5.50;;;5.30;;
6386;SDS011;3226;42.162;24.756;2022-12-11T01:05:23;5.60;;;5.40;;
6386;SDS011;3226;42.162;24.756;2022-12-11T01:07:51;6.03;;;5.83;;
6386;SDS011;3226;42.162;24.756;2022-12-11T01:10:19;5.47;;;5.27;;
6386;SDS011;3226;42.162;24.756;2022-12-11T01:12:53;6.00;;;5.80;;
6386;SDS011;3226;42.162;24.756;2022-12-11T01:15:23;6.80;;;6.50;;
6386;SDS011;3226;42.162;24.756;2022-12-11T01:17:53;5.83;;;5.63;;
6386;SDS011;3226;42.162;24.756;2022-12-11T01:20:23;5.57;;;5.37;;
6386;SDS011;3226;42.162;24.756;2022-12-11T01:22:52;5.47;;;5.27;;
6386;SDS011;3226;42.162;24.756;2022-12-11T01:25:23;6.53;;;6.23;;
6386;SDS011;3226;42.162;24.756;2022-12-11T01:27:51;5.73;;;5.53;;
6386;SDS011;3226;42.162;24.756;2022-12-11T01:30:21;5.77;;;5.57;;
6386;SDS011;3226;42.162;24.756;2022-12-11T01:32:50;6.60;;;6.27;;
6386;SDS011;3226;42.162;24.756;2022-12-11T01:35:19;5.83;;;5.63;;
6386;SDS011;3226;42.162;24.756;2022-12-11T01:37:48;5.47;;;5.27;;
6386;SDS011;3226;42.162;24.756;2022-12-11T01:40:17;6.03;;;5.83;;
6386;SDS011;3226;42.162;24.756;2022-12-11T01:42:46;5.13;;;4.93;;
6386;SDS011;3226;42.162;24.756;2022-12-11T01:45:24;5.90;;;5.70;;
6386;SDS011;3226;42.162;24.756;2022-12-11T01:48:04;6.50;;;6.20;;
6386;SDS011;3226;42.162;24.756;2022-12-11T01:50:35;6.00;;;5.80;;
6386;SDS011;3226;42.162;24.756;2022-12-11T01:53:08;6.03;;;5.83;;
6386;SDS011;3226;42.162;24.756;2022-12-11T01:55:38;6.10;;;5.90;;
6386;SDS011;3226;42.162;24.756;2022-12-11T01:58:07;6.60;;;6.30;;
6386;SDS011;3226;42.162;24.756;2022-12-11T02:00:36;6.00;;;5.80;;
6386;SDS011;3226;42.162;24.756;2022-12-11T02:03:05;5.50;;;5.30;;
6386;SDS011;3226;42.162;24.756;2022-12-11T02:05:33;6.17;;;5.97;;
6386;SDS011;3226;42.162;24.756;2022-12-11T02:08:01;5.97;;;5.77;;
6386;SDS011;3226;42.162;24.756;2022-12-11T02:10:34;6.53;;;6.23;;
6386;SDS011;3226;42.162;24.756;2022-12-11T02:13:11;6.57;;;6.27;;
6386;SDS011;3226;42.162;24.756;2022-12-11T02:15:46;6.53;;;6.23;;
6386;SDS011;3226;42.162;24.756;2022-12-11T02:18:19;6.20;;;6.00;;
6386;SDS011;3226;42.162;24.756;2022-12-11T02:20:57;5.67;;;5.47;;
6386;SDS011;3226;42.162;24.756;2022-12-11T02:23:37;6.13;;;5.93;;
6386;SDS011;3226;42.162;24.756;2022-12-11T02:26:28;6.60;;;6.30;;
6386;SDS011;3226;42.162;24.756;2022-12-11T02:29:09;5.47;;;5.27;;
6386;SDS011;3226;42.162;24.756;2022-12-11T02:31:45;5.23;;;5.03;;
6386;SDS011;3226;42.162;24.756;2022-12-11T02:34:17;6.73;;;6.33;;
6386;SDS011;3226;42.162;24.756;2022-12-11T02:36:50;6.23;;;6.00;;
6386;SDS011;3226;42.162;24.756;2022-12-11T02:39:22;5.73;;;5.53;;
6386;SDS011;3226;42.162;24.756;2022-12-11T02:41:53;6.63;;;6.33;;
6386;SDS011;3226;42.162;24.756;2022-12-11T02:44:25;5.97;;;5.77;;
6386;SDS011;3226;42.162;24.756;2022-12-11T02:46:56;6.03;;;5.83;;
6386;SDS011;3226;42.162;24.756;2022-12-11T02:49:25;6.67;;;6.37;;
6386;SDS011;3226;42.162;24.756;2022-12-11T02:51:55;6.43;;;6.13;;
6386;SDS011;3226;42.162;24.756;2022-12-11T02:54:26;6.70;;;6.40;;
6386;SDS011;3226;42.162;24.756;2022-12-11T02:56:57;6.00;;;5.80;;
6386;SDS011;3226;42.162;24.756;2022-12-11T02:59:31;7.33;;;7.03;;
6386;SDS011;3226;42.162;24.756;2022-12-11T03:02:02;7.20;;;6.90;;
6386;SDS011;3226;42.162;24.756;2022-12-11T03:04:32;5.57;;;5.37;;
6386;SDS011;3226;42.162;24.756;2022-12-11T03:07:03;6.70;;;6.40;;
6386;SDS011;3226;42.162;24.756;2022-12-11T03:09:37;6.67;;;6.37;;
6386;SDS011;3226;42.162;24.756;2022-12-11T03:12:06;6.63;;;6.33;;
6386;SDS011;3226;42.162;24.756;2022-12-11T03:14:38;6.83;;;6.53;;
6386;SDS011;3226;42.162;24.756;2022-12-11T03:17:10;5.70;;;5.50;;
6386;SDS011;3226;42.162;24.756;2022-12-11T03:19:43;6.80;;;6.50;;
6386;SDS011;3226;42.162;24.756;2022-12-11T03:22:18;6.73;;;6.43;;
6386;SDS011;3226;42.162;24.756;2022-12-11T03:24:50;6.50;;;6.20;;
6386;SDS011;3226;42.162;24.756;2022-12-11T03:27:22;7.37;;;7.07;;
6386;SDS011;3226;42.162;24.756;2022-12-11T03:29:55;6.47;;;6.17;;
6386;SDS011;3226;42.162;24.756;2022-12-11T03:32:27;5.53;;;5.33;;
6386;SDS011;3226;42.162;24.756;2022-12-11T03:34:58;6.40;;;6.10;;
6386;SDS011;3226;42.162;24.756;2022-12-11T03:37:30;7.17;;;6.87;;
6386;SDS011;3226;42.162;24.756;2022-12-11T03:40:03;5.87;;;5.67;;
6386;SDS011;3226;42.162;24.756;2022-12-11T03:42:36;6.50;;;6.20;;
6386;SDS011;3226;42.162;24.756;2022-12-11T03:45:08;7.23;;;6.93;;
6386;SDS011;3226;42.162;24.756;2022-12-11T03:47:37;6.90;;;6.60;;
6386;SDS011;3226;42.162;24.756;2022-12-11T03:50:07;6.53;;;6.23;;
6386;SDS011;3226;42.162;24.756;2022-12-11T03:52:39;7.30;;;7.00;;
6386;SDS011;3226;42.162;24.756;2022-12-11T03:55:12;8.00;;;7.70;;
6386;SDS011;3226;42.162;24.756;2022-12-11T03:57:42;6.07;;;5.87;;
6386;SDS011;3226;42.162;24.756;2022-12-11T04:00:13;7.37;;;7.07;;
6386;SDS011;3226;42.162;24.756;2022-12-11T04:02:43;6.10;;;5.90;;
6386;SDS011;3226;42.162;24.756;2022-12-11T04:05:38;7.43;;;7.13;;
6386;SDS011;3226;42.162;24.756;2022-12-11T04:08:07;7.00;;;6.70;;
6386;SDS011;3226;42.162;24.756;2022-12-11T04:10:35;7.27;;;6.97;;
6386;SDS011;3226;42.162;24.756;2022-12-11T04:13:03;7.10;;;6.80;;
6386;SDS011;3226;42.162;24.756;2022-12-11T04:15:32;6.75;;;6.45;;
6386;SDS011;3226;42.162;24.756;2022-12-11T04:17:59;7.70;;;7.40;;
6386;SDS011;3226;42.162;24.756;2022-12-11T04:20:45;7.40;;;7.10;;
6386;SDS011;3226;42.162;24.756;2022-12-11T04:23:31;7.10;;;6.80;;
6386;SDS011;3226;42.162;24.756;2022-12-11T04:26:17;6.63;;;6.33;;
6386;SDS011;3226;42.162;24.756;2022-12-11T04:28:47;7.23;;;6.93;;
6386;SDS011;3226;42.162;24.756;2022-12-11T04:31:17;6.73;;;6.43;;
6386;SDS011;3226;42.162;24.756;2022-12-11T04:33:47;6.93;;;6.63;;
6386;SDS011;3226;42.162;24.756;2022-12-11T04:36:15;6.33;;;6.07;;
6386;SDS011;3226;42.162;24.756;2022-12-11T04:38:43;7.97;;;7.67;;
6386;SDS011;3226;42.162;24.756;2022-12-11T04:41:12;7.43;;;7.13;;
6386;SDS011;3226;42.162;24.756;2022-12-11T04:43:42;7.23;;;6.93;;
6386;SDS011;3226;42.162;24.756;2022-12-11T04:46:11;7.13;;;6.83;;
6386;SDS011;3226;42.162;24.756;2022-12-11T04:48:42;7.13;;;6.83;;
6386;SDS011;3226;42.162;24.756;2022-12-11T04:51:11;7.70;;;7.40;;
6386;SDS011;3226;42.162;24.756;2022-12-11T04:53:39;7.23;;;6.93;;
6386;SDS011;3226;42.162;24.756;2022-12-11T04:56:08;6.87;;;6.57;;
6386;SDS011;3226;42.162;24.756;2022-12-11T04:58:38;8.13;;;7.83;;
6386;SDS011;3226;42.162;24.756;2022-12-11T05:01:06;7.37;;;7.07;;
6386;SDS011;3226;42.162;24.756;2022-12-11T05:03:35;7.73;;;7.43;;
6386;SDS011;3226;42.162;24.756;2022-12-11T05:06:06;7.30;;;7.00;;
6386;SDS011;3226;42.162;24.756;2022-12-11T05:08:35;8.67;;;8.27;;
6386;SDS011;3226;42.162;24.756;2022-12-11T05:11:06;7.53;;;7.23;;
6386;SDS011;3226;42.162;24.756;2022-12-11T05:13:35;7.80;;;7.50;;
6386;SDS011;3226;42.162;24.756;2022-12-11T05:16:03;8.17;;;7.87;;
6386;SDS011;3226;42.162;24.756;2022-12-11T05:18:32;7.73;;;7.43;;
6386;SDS011;3226;42.162;24.756;2022-12-11T05:21:01;8.87;;;8.47;;
6386;SDS011;3226;42.162;24.756;2022-12-11T05:23:32;11.17;;;10.67;;
6386;SDS011;3226;42.162;24.756;2022-12-11T05:26:01;11.03;;;10.53;;
6386;SDS011;3226;42.162;24.756;2022-12-11T05:28:31;9.40;;;9.00;;
6386;SDS011;3226;42.162;24.756;2022-12-11T05:31:02;8.63;;;8.23;;
6386;SDS011;3226;42.162;24.756;2022-12-11T05:33:31;8.32;;;7.93;;
6386;SDS011;3226;42.162;24.756;2022-12-11T05:35:59;8.67;;;8.27;;
6386;SDS011;3226;42.162;24.756;2022-12-11T05:38:38;8.50;;;8.13;;
6386;SDS011;3226;42.162;24.756;2022-12-11T05:41:06;8.33;;;7.97;;
6386;SDS011;3226;42.162;24.756;2022-12-11T05:43:34;8.43;;;8.10;;
6386;SDS011;3226;42.162;24.756;2022-12-11T05:46:06;8.63;;;8.23;;
6386;SDS011;3226;42.162;24.756;2022-12-11T05:48:35;8.17;;;7.87;;
6386;SDS011;3226;42.162;24.756;2022-12-11T05:51:04;8.67;;;8.27;;
6386;SDS011;3226;42.162;24.756;2022-12-11T05:53:34;7.70;;;7.30;;
6386;SDS011;3226;42.162;24.756;2022-12-11T05:56:05;7.33;;;7.03;;
6386;SDS011;3226;42.162;24.756;2022-12-11T05:58:34;7.40;;;7.10;;
6386;SDS011;3226;42.162;24.756;2022-12-11T06:01:05;8.00;;;7.70;;
6386;SDS011;3226;42.162;24.756;2022-12-11T06:03:35;7.70;;;7.40;;
6386;SDS011;3226;42.162;24.756;2022-12-11T06:06:03;6.40;;;6.13;;
6386;SDS011;3226;42.162;24.756;2022-12-11T06:08:32;7.00;;;6.70;;
6386;SDS011;3226;42.162;24.756;2022-12-11T06:11:01;7.17;;;6.87;;
6386;SDS011;3226;42.162;24.756;2022-12-11T06:13:30;6.43;;;6.17;;
6386;SDS011;3226;42.162;24.756;2022-12-11T06:15:59;7.30;;;7.00;;
6386;SDS011;3226;42.162;24.756;2022-12-11T06:18:28;7.50;;;7.20;;
6386;SDS011;3226;42.162;24.756;2022-12-11T06:20:57;6.40;;;6.10;;
6386;SDS011;3226;42.162;24.756;2022-12-11T06:23:24;6.10;;;5.90;;
6386;SDS011;3226;42.162;24.756;2022-12-11T06:25:52;6.73;;;6.43;;
6386;SDS011;3226;42.162;24.756;2022-12-11T06:28:20;6.70;;;6.40;;
6386;SDS011;3226;42.162;24.756;2022-12-11T06:30:50;7.63;;;7.33;;
6386;SDS011;3226;42.162;24.756;2022-12-11T06:33:18;7.53;;;7.13;;
6386;SDS011;3226;42.162;24.756;2022-12-11T06:35:45;7.45;;;7.15;;
6386;SDS011;3226;42.162;24.756;2022-12-11T06:38:14;8.17;;;7.87;;
6386;SDS011;3226;42.162;24.756;2022-12-11T06:40:42;8.67;;;8.27;;
6386;SDS011;3226;42.162;24.756;2022-12-11T06:43:10;7.83;;;7.53;;
6386;SDS011;3226;42.162;24.756;2022-12-11T06:45:38;7.87;;;7.57;;
6386;SDS011;3226;42.162;24.756;2022-12-11T06:48:08;7.20;;;6.90;;
6386;SDS011;3226;42.162;24.756;2022-12-11T06:50:36;7.23;;;6.93;;
6386;SDS011;3226;42.162;24.756;2022-12-11T06:53:04;8.00;;;7.70;;
6386;SDS011;3226;42.162;24.756;2022-12-11T06:55:33;7.47;;;7.17;;
6386;SDS011;3226;42.162;24.756;2022-12-11T06:58:01;7.20;;;6.90;;
6386;SDS011;3226;42.162;24.756;2022-12-11T07:00:29;8.40;;;8.00;;
6386;SDS011;3226;42.162;24.756;2022-12-11T07:02:58;8.83;;;8.43;;
6386;SDS011;3226;42.162;24.756;2022-12-11T07:05:27;7.77;;;7.47;;
6386;SDS011;3226;42.162;24.756;2022-12-11T07:07:55;8.13;;;7.82;;
6386;SDS011;3226;42.162;24.756;2022-12-11T07:10:23;7.73;;;7.43;;
6386;SDS011;3226;42.162;24.756;2022-12-11T07:12:52;7.17;;;6.87;;
6386;SDS011;3226;42.162;24.756;2022-12-11T07:15:20;7.07;;;6.77;;
6386;SDS011;3226;42.162;24.756;2022-12-11T07:17:48;6.97;;;6.67;;
6386;SDS011;3226;42.162;24.756;2022-12-11T07:20:16;7.20;;;6.90;;
6386;SDS011;3226;42.162;24.756;2022-12-11T07:22:45;7.37;;;7.07;;
6386;SDS011;3226;42.162;24.756;2022-12-11T07:25:13;8.47;;;8.10;;
6386;SDS011;3226;42.162;24.756;2022-12-11T07:27:42;7.53;;;7.23;;
6386;SDS011;3226;42.162;24.756;2022-12-11T07:30:10;8.10;;;7.80;;
6386;SDS011;3226;42.162;24.756;2022-12-11T07:32:39;7.33;;;7.03;;
6386;SDS011;3226;42.162;24.756;2022-12-11T07:35:07;7.93;;;7.53;;
6386;SDS011;3226;42.162;24.756;2022-12-11T07:37:38;7.87;;;7.47;;
6386;SDS011;3226;42.162;24.756;2022-12-11T07:40:09;7.63;;;7.33;;
6386;SDS011;3226;42.162;24.756;2022-12-11T07:42:43;7.53;;;7.23;;
6386;SDS011;3226;42.162;24.756;2022-12-11T07:45:12;8.40;;;8.00;;
6386;SDS011;3226;42.162;24.756;2022-12-11T07:47:40;8.03;;;7.73;;
6386;SDS011;3226;42.162;24.756;2022-12-11T07:50:08;7.70;;;7.40;;
6386;SDS011;3226;42.162;24.756;2022-12-11T07:52:36;8.33;;;8.00;;
6386;SDS011;3226;42.162;24.756;2022-12-11T07:55:04;7.83;;;7.53;;
6386;SDS011;3226;42.162;24.756;2022-12-11T07:57:34;9.90;;;9.50;;
6386;SDS011;3226;42.162;24.756;2022-12-11T08:00:02;9.13;;;8.73;;
6386;SDS011;3226;42.162;24.756;2022-12-11T08:02:31;8.13;;;7.83;;
6386;SDS011;3226;42.162;24.756;2022-12-11T08:05:03;7.80;;;7.50;;
6386;SDS011;3226;42.162;24.756;2022-12-11T08:07:32;8.00;;;7.70;;
6386;SDS011;3226;42.162;24.756;2022-12-11T08:10:01;7.67;;;7.37;;
6386;SDS011;3226;42.162;24.756;2022-12-11T08:12:30;10.90;;;10.40;;
6386;SDS011;3226;42.162;24.756;2022-12-11T08:14:59;7.70;;;7.40;;
6386;SDS011;3226;42.162;24.756;2022-12-11T08:17:27;7.67;;;7.37;;
6386;SDS011;3226;42.162;24.756;2022-12-11T08:20:02;7.90;;;7.60;;
6386;SDS011;3226;42.162;24.756;2022-12-11T08:22:30;7.93;;;7.63;;
6386;SDS011;3226;42.162;24.756;2022-12-11T08:24:58;8.13;;;7.83;;
6386;SDS011;3226;42.162;24.756;2022-12-11T08:27:26;7.37;;;7.07;;
6386;SDS011;3226;42.162;24.756;2022-12-11T08:29:54;7.60;;;7.30;;
6386;SDS011;3226;42.162;24.756;2022-12-11T08:32:23;7.70;;;7.40;;
6386;SDS011;3226;42.162;24.756;2022-12-11T08:34:51;11.93;;;11.43;;
6386;SDS011;3226;42.162;24.756;2022-12-11T08:37:19;7.93;;;7.63;;
6386;SDS011;3226;42.162;24.756;2022-12-11T08:39:47;8.30;;;7.97;;
6386;SDS011;3226;42.162;24.756;2022-12-11T08:42:15;7.53;;;7.23;;
6386;SDS011;3226;42.162;24.756;2022-12-11T08:44:43;7.73;;;7.43;;
6386;SDS011;3226;42.162;24.756;2022-12-11T08:47:11;8.07;;;7.67;;
6386;SDS011;3226;42.162;24.756;2022-12-11T08:49:42;8.97;;;8.47;;
6386;SDS011;3226;42.162;24.756;2022-12-11T08:52:09;8.13;;;7.83;;
6386;SDS011;3226;42.162;24.756;2022-12-11T08:54:37;6.63;;;6.33;;
6386;SDS011;3226;42.162;24.756;2022-12-11T08:57:05;8.20;;;7.87;;
6386;SDS011;3226;42.162;24.756;2022-12-11T08:59:33;8.83;;;8.43;;
6386;SDS011;3226;42.162;24.756;2022-12-11T09:02:01;7.10;;;6.80;;
6386;SDS011;3226;42.162;24.756;2022-12-11T09:04:29;8.33;;;7.97;;
6386;SDS011;3226;42.162;24.756;2022-12-11T09:06:59;8.07;;;7.77;;
6386;SDS011;3226;42.162;24.756;2022-12-11T09:09:27;7.03;;;6.73;;
6386;SDS011;3226;42.162;24.756;2022-12-11T09:11:55;9.83;;;9.43;;
6386;SDS011;3226;42.162;24.756;2022-12-11T09:14:23;9.40;;;9.00;;
6386;SDS011;3226;42.162;24.756;2022-12-11T09:16:51;7.83;;;7.53;;
6386;SDS011;3226;42.162;24.756;2022-12-11T09:19:18;9.20;;;8.77;;
6386;SDS011;3226;42.162;24.756;2022-12-11T09:21:46;9.17;;;8.77;;
6386;SDS011;3226;42.162;24.756;2022-12-11T09:24:16;9.17;;;8.77;;
6386;SDS011;3226;42.162;24.756;2022-12-11T09:26:44;6.97;;;6.67;;
6386;SDS011;3226;42.162;24.756;2022-12-11T09:29:12;7.77;;;7.47;;
6386;SDS011;3226;42.162;24.756;2022-12-11T09:31:40;7.17;;;6.87;;
6386;SDS011;3226;42.162;24.756;2022-12-11T09:34:10;7.93;;;7.63;;
6386;SDS011;3226;42.162;24.756;2022-12-11T09:36:39;7.03;;;6.73;;
6386;SDS011;3226;42.162;24.756;2022-12-11T09:39:09;7.50;;;7.20;;
6386;SDS011;3226;42.162;24.756;2022-12-11T09:41:44;8.30;;;7.80;;
6386;SDS011;3226;42.162;24.756;2022-12-11T09:47:12;7.07;;;6.77;;
6386;SDS011;3226;42.162;24.756;2022-12-11T09:49:45;7.40;;;7.10;;
6386;SDS011;3226;42.162;24.756;2022-12-11T09:52:19;8.60;;;8.20;;
6386;SDS011;3226;42.162;24.756;2022-12-11T09:54:57;10.20;;;9.77;;
6386;SDS011;3226;42.162;24.756;2022-12-11T09:57:30;7.77;;;7.47;;
6386;SDS011;3226;42.162;24.756;2022-12-11T10:00:11;7.87;;;7.57;;
6386;SDS011;3226;42.162;24.756;2022-12-11T10:02:57;7.00;;;6.70;;
6386;SDS011;3226;42.162;24.756;2022-12-11T10:05:36;6.57;;;6.27;;
6386;SDS011;3226;42.162;24.756;2022-12-11T10:08:15;8.00;;;7.70;;
6386;SDS011;3226;42.162;24.756;2022-12-11T10:10:50;8.13;;;7.77;;
6386;SDS011;3226;42.162;24.756;2022-12-11T10:13:27;7.10;;;6.80;;
6386;SDS011;3226;42.162;24.756;2022-12-11T10:16:03;7.13;;;6.83;;
6386;SDS011;3226;42.162;24.756;2022-12-11T10:18:38;7.83;;;7.53;;
6386;SDS011;3226;42.162;24.756;2022-12-11T10:21:07;7.53;;;7.23;;
6386;SDS011;3226;42.162;24.756;2022-12-11T10:23:37;7.30;;;7.00;;
6386;SDS011;3226;42.162;24.756;2022-12-11T10:26:11;7.60;;;7.30;;
6386;SDS011;3226;42.162;24.756;2022-12-11T10:28:45;7.43;;;7.13;;
6386;SDS011;3226;42.162;24.756;2022-12-11T10:31:14;7.33;;;7.03;;
6386;SDS011;3226;42.162;24.756;2022-12-11T10:33:48;7.33;;;7.03;;
6386;SDS011;3226;42.162;24.756;2022-12-11T10:36:25;6.93;;;6.63;;
6386;SDS011;3226;42.162;24.756;2022-12-11T10:38:55;8.83;;;8.43;;
6386;SDS011;3226;42.162;24.756;2022-12-11T10:41:31;8.20;;;7.90;;
6386;SDS011;3226;42.162;24.756;2022-12-11T10:44:12;7.20;;;6.90;;
6386;SDS011;3226;42.162;24.756;2022-12-11T10:46:43;7.37;;;7.07;;
6386;SDS011;3226;42.162;24.756;2022-12-11T10:49:19;8.50;;;8.10;;
6386;SDS011;3226;42.162;24.756;2022-12-11T10:51:50;8.03;;;7.73;;
6386;SDS011;3226;42.162;24.756;2022-12-11T10:54:26;7.23;;;6.93;;
6386;SDS011;3226;42.162;24.756;2022-12-11T10:57:00;8.00;;;7.70;;
6386;SDS011;3226;42.162;24.756;2022-12-11T10:59:31;7.33;;;7.03;;
6386;SDS011;3226;42.162;24.756;2022-12-11T11:02:03;7.50;;;7.20;;
6386;SDS011;3226;42.162;24.756;2022-12-11T11:04:34;7.43;;;7.13;;
6386;SDS011;3226;42.162;24.756;2022-12-11T11:07:10;8.33;;;7.93;;
6386;SDS011;3226;42.162;24.756;2022-12-11T11:09:40;6.93;;;6.63;;
6386;SDS011;3226;42.162;24.756;2022-12-11T11:12:18;7.17;;;6.87;;
6386;SDS011;3226;42.162;24.756;2022-12-11T11:14:58;7.17;;;6.87;;
6386;SDS011;3226;42.162;24.756;2022-12-11T11:17:27;7.23;;;6.93;;
6386;SDS011;3226;42.162;24.756;2022-12-11T11:20:03;7.23;;;6.93;;
6386;SDS011;3226;42.162;24.756;2022-12-11T11:22:39;7.43;;;7.13;;
6386;SDS011;3226;42.162;24.756;2022-12-11T11:25:14;7.90;;;7.60;;
6386;SDS011;3226;42.162;24.756;2022-12-11T11:27:45;7.67;;;7.37;;
6386;SDS011;3226;42.162;24.756;2022-12-11T11:30:21;7.60;;;7.30;;
6386;SDS011;3226;42.162;24.756;2022-12-11T11:32:50;6.90;;;6.60;;
6386;SDS011;3226;42.162;24.756;2022-12-11T11:35:22;7.73;;;7.43;;
6386;SDS011;3226;42.162;24.756;2022-12-11T11:37:57;8.27;;;7.93;;
6386;SDS011;3226;42.162;24.756;2022-12-11T11:40:30;8.20;;;7.87;;
6386;SDS011;3226;42.162;24.756;2022-12-11T11:43:05;8.53;;;8.13;;
6386;SDS011;3226;42.162;24.756;2022-12-11T11:45:42;7.83;;;7.53;;
6386;SDS011;3226;42.162;24.756;2022-12-11T11:48:20;7.20;;;6.90;;
6386;SDS011;3226;42.162;24.756;2022-12-11T11:50:57;6.77;;;6.47;;
6386;SDS011;3226;42.162;24.756;2022-12-11T11:53:26;7.50;;;7.20;;
6386;SDS011;3226;42.162;24.756;2022-12-11T11:56:04;7.93;;;7.63;;
6386;SDS011;3226;42.162;24.756;2022-12-11T11:58:44;8.73;;;8.33;;
6386;SDS011;3226;42.162;24.756;2022-12-11T12:01:18;8.07;;;7.77;;
6386;SDS011;3226;42.162;24.756;2022-12-11T12:03:47;6.90;;;6.60;;
6386;SDS011;3226;42.162;24.756;2022-12-11T12:06:17;7.83;;;7.53;;
6386;SDS011;3226;42.162;24.756;2022-12-11T12:08:56;8.87;;;8.47;;
6386;SDS011;3226;42.162;24.756;2022-12-11T12:11:32;7.53;;;7.23;;
6386;SDS011;3226;42.162;24.756;2022-12-11T12:14:09;7.63;;;7.33;;
6386;SDS011;3226;42.162;24.756;2022-12-11T12:17:09;7.73;;;7.43;;
6386;SDS011;3226;42.162;24.756;2022-12-11T12:19:47;8.03;;;7.73;;
6386;SDS011;3226;42.162;24.756;2022-12-11T12:22:29;7.77;;;7.47;;
6386;SDS011;3226;42.162;24.756;2022-12-11T12:25:13;7.03;;;6.73;;
6386;SDS011;3226;42.162;24.756;2022-12-11T12:27:47;7.90;;;7.60;;
6386;SDS011;3226;42.162;24.756;2022-12-11T12:30:19;7.40;;;7.10;;
6386;SDS011;3226;42.162;24.756;2022-12-11T12:32:57;7.40;;;7.10;;
6386;SDS011;3226;42.162;24.756;2022-12-11T12:35:37;8.10;;;7.80;;
6386;SDS011;3226;42.162;24.756;2022-12-11T12:38:11;7.77;;;7.47;;
6386;SDS011;3226;42.162;24.756;2022-12-11T12:40:47;7.60;;;7.30;;
6386;SDS011;3226;42.162;24.756;2022-12-11T12:43:36;8.13;;;7.83;;
6386;SDS011;3226;42.162;24.756;2022-12-11T12:46:16;8.00;;;7.70;;
6386;SDS011;3226;42.162;24.756;2022-12-11T12:48:53;7.53;;;7.23;;
6386;SDS011;3226;42.162;24.756;2022-12-11T12:51:25;7.10;;;6.80;;
6386;SDS011;3226;42.162;24.756;2022-12-11T12:53:54;6.60;;;6.30;;
6386;SDS011;3226;42.162;24.756;2022-12-11T12:56:25;7.23;;;6.93;;
6386;SDS011;3226;42.162;24.756;2022-12-11T12:58:55;7.33;;;7.03;;
6386;SDS011;3226;42.162;24.756;2022-12-11T13:01:24;7.23;;;6.93;;
6386;SDS011;3226;42.162;24.756;2022-12-11T13:03:55;7.20;;;6.90;;
6386;SDS011;3226;42.162;24.756;2022-12-11T13:06:28;7.70;;;7.40;;
6386;SDS011;3226;42.162;24.756;2022-12-11T13:09:09;6.93;;;6.63;;
6386;SDS011;3226;42.162;24.756;2022-12-11T13:11:41;8.20;;;7.90;;
6386;SDS011;3226;42.162;24.756;2022-12-11T13:14:21;7.33;;;7.03;;
6386;SDS011;3226;42.162;24.756;2022-12-11T13:17:04;7.73;;;7.43;;
6386;SDS011;3226;42.162;24.756;2022-12-11T13:19:36;8.07;;;7.77;;
6386;SDS011;3226;42.162;24.756;2022-12-11T13:22:19;9.17;;;8.77;;
6386;SDS011;3226;42.162;24.756;2022-12-11T13:24:55;7.80;;;7.50;;
6386;SDS011;3226;42.162;24.756;2022-12-11T13:27:35;8.03;;;7.73;;
6386;SDS011;3226;42.162;24.756;2022-12-11T13:30:05;8.53;;;8.13;;
6386;SDS011;3226;42.162;24.756;2022-12-11T13:32:48;8.57;;;8.17;;
6386;SDS011;3226;42.162;24.756;2022-12-11T13:35:26;9.13;;;8.73;;
6386;SDS011;3226;42.162;24.756;2022-12-11T13:37:56;8.40;;;8.00;;
6386;SDS011;3226;42.162;24.756;2022-12-11T13:40:31;8.57;;;8.17;;
6386;SDS011;3226;42.162;24.756;2022-12-11T13:43:03;8.47;;;8.07;;
6386;SDS011;3226;42.162;24.756;2022-12-11T13:45:36;7.43;;;7.13;;
6386;SDS011;3226;42.162;24.756;2022-12-11T13:48:14;8.13;;;7.83;;
6386;SDS011;3226;42.162;24.756;2022-12-11T13:50:47;7.97;;;7.67;;
6386;SDS011;3226;42.162;24.756;2022-12-11T13:53:17;7.47;;;7.17;;
6386;SDS011;3226;42.162;24.756;2022-12-11T13:55:54;7.97;;;7.57;;
6386;SDS011;3226;42.162;24.756;2022-12-11T13:58:23;8.50;;;8.13;;
6386;SDS011;3226;42.162;24.756;2022-12-11T14:00:53;7.50;;;7.20;;
6386;SDS011;3226;42.162;24.756;2022-12-11T14:03:29;8.40;;;8.00;;
6386;SDS011;3226;42.162;24.756;2022-12-11T14:05:59;7.43;;;7.13;;
6386;SDS011;3226;42.162;24.756;2022-12-11T14:08:31;8.33;;;7.93;;
6386;SDS011;3226;42.162;24.756;2022-12-11T14:11:02;9.73;;;9.33;;
6386;SDS011;3226;42.162;24.756;2022-12-11T14:13:32;7.77;;;7.47;;
6386;SDS011;3226;42.162;24.756;2022-12-11T14:16:02;8.90;;;8.50;;
6386;SDS011;3226;42.162;24.756;2022-12-11T14:18:34;7.30;;;7.00;;
6386;SDS011;3226;42.162;24.756;2022-12-11T14:21:04;7.73;;;7.43;;
6386;SDS011;3226;42.162;24.756;2022-12-11T14:23:33;7.33;;;7.03;;
6386;SDS011;3226;42.162;24.756;2022-12-11T14:26:03;9.57;;;9.07;;
6386;SDS011;3226;42.162;24.756;2022-12-11T14:28:41;8.93;;;8.53;;
6386;SDS011;3226;42.162;24.756;2022-12-11T14:31:11;8.53;;;8.13;;
6386;SDS011;3226;42.162;24.756;2022-12-11T14:33:42;11.03;;;10.53;;
6386;SDS011;3226;42.162;24.756;2022-12-11T14:36:15;9.47;;;9.07;;
6386;SDS011;3226;42.162;24.756;2022-12-11T14:38:44;10.70;;;10.20;;
6386;SDS011;3226;42.162;24.756;2022-12-11T14:41:17;11.57;;;11.07;;
6386;SDS011;3226;42.162;24.756;2022-12-11T14:43:50;9.87;;;9.47;;
6386;SDS011;3226;42.162;24.756;2022-12-11T14:46:21;8.00;;;7.70;;
6386;SDS011;3226;42.162;24.756;2022-12-11T14:49:15;7.40;;;7.10;;
6386;SDS011;3226;42.162;24.756;2022-12-11T14:51:52;8.53;;;8.13;;
6386;SDS011;3226;42.162;24.756;2022-12-11T14:54:26;8.10;;;7.80;;
6386;SDS011;3226;42.162;24.756;2022-12-11T14:56:58;8.70;;;8.30;;
6386;SDS011;3226;42.162;24.756;2022-12-11T14:59:28;8.60;;;8.20;;
6386;SDS011;3226;42.162;24.756;2022-12-11T15:01:59;8.20;;;7.87;;
6386;SDS011;3226;42.162;24.756;2022-12-11T15:04:29;8.03;;;7.73;;
6386;SDS011;3226;42.162;24.756;2022-12-11T15:06:59;7.40;;;7.10;;
6386;SDS011;3226;42.162;24.756;2022-12-11T15:09:28;8.10;;;7.80;;
6386;SDS011;3226;42.162;24.756;2022-12-11T15:12:07;7.87;;;7.57;;
6386;SDS011;3226;42.162;24.756;2022-12-11T15:14:40;7.40;;;7.10;;
6386;SDS011;3226;42.162;24.756;2022-12-11T15:17:18;8.73;;;8.33;;
6386;SDS011;3226;42.162;24.756;2022-12-11T15:19:59;7.57;;;7.27;;
6386;SDS011;3226;42.162;24.756;2022-12-11T15:22:34;6.83;;;6.53;;
6386;SDS011;3226;42.162;24.756;2022-12-11T15:25:03;8.53;;;8.13;;
6386;SDS011;3226;42.162;24.756;2022-12-11T15:27:32;8.67;;;8.27;;
6386;SDS011;3226;42.162;24.756;2022-12-11T15:30:13;9.00;;;8.60;;